createdAt,value
2022-12-20T00:01:40.992Z,3.76
2022-12-20T00:04:11.062Z,3.78
2022-12-20T00:06:38.726Z,3.83
2022-12-20T00:09:09.367Z,3.77
2022-12-20T00:11:41.094Z,3.76
2022-12-20T00:14:10.521Z,3.77
2022-12-20T00:16:38.230Z,3.71
2022-12-20T00:19:07.818Z,3.74
2022-12-20T00:21:36.372Z,3.76
2022-12-20T00:24:06.195Z,3.73
2022-12-20T00:26:35.696Z,3.73
2022-12-20T00:29:03.426Z,3.75
2022-12-20T00:31:32.636Z,3.79
2022-12-20T00:34:01.170Z,3.78
2022-12-20T00:36:31.926Z,3.79
2022-12-20T00:39:01.447Z,3.77
2022-12-20T00:41:33.586Z,3.82
2022-12-20T00:44:02.111Z,3.77
2022-12-20T00:46:31.710Z,3.77
2022-12-20T00:49:00.111Z,3.78
2022-12-20T00:51:32.529Z,3.73
2022-12-20T00:53:59.982Z,3.70
2022-12-20T00:56:27.530Z,3.73
2022-12-20T00:59:00.166Z,3.74
2022-12-20T01:01:32.662Z,3.72
2022-12-20T01:04:01.198Z,3.70
2022-12-20T01:06:30.226Z,3.71
2022-12-20T01:08:58.287Z,3.70
2022-12-20T01:11:35.938Z,3.70
2022-12-20T01:14:15.567Z,3.70
2022-12-20T01:16:46.442Z,3.71
2022-12-20T01:19:18.438Z,3.72
2022-12-20T01:21:45.957Z,3.70
2022-12-20T01:24:20.036Z,3.70
2022-12-20T01:26:47.989Z,3.69
2022-12-20T01:29:16.019Z,3.68
2022-12-20T01:31:44.605Z,3.66
2022-12-20T01:34:12.462Z,3.68
2022-12-20T01:36:40.560Z,3.68
2022-12-20T01:39:14.479Z,3.67
2022-12-20T01:41:45.329Z,3.66
2022-12-20T01:44:18.538Z,3.64
2022-12-20T01:46:49.751Z,3.66
2022-12-20T01:49:25.825Z,3.65
2022-12-20T01:52:23.041Z,3.63
2022-12-20T01:55:16.036Z,3.62
2022-12-20T01:57:59.483Z,3.63
2022-12-20T02:00:26.947Z,3.65
2022-12-20T02:02:56.018Z,3.63
2022-12-20T02:05:24.180Z,3.64
2022-12-20T02:07:56.064Z,3.63
2022-12-20T02:10:34.534Z,3.62
2022-12-20T02:13:20.264Z,3.64
2022-12-20T02:15:57.644Z,3.61
2022-12-20T02:18:46.136Z,3.59
2022-12-20T02:21:34.834Z,3.62
2022-12-20T02:25:16.978Z,3.62
2022-12-20T02:28:12.605Z,3.63
2022-12-20T02:30:45.897Z,3.64
2022-12-20T02:33:15.082Z,3.62
2022-12-20T02:35:43.040Z,3.63
2022-12-20T02:38:34.859Z,3.62
2022-12-20T02:41:25.467Z,3.61
2022-12-20T02:44:20.713Z,3.61
2022-12-20T02:46:49.095Z,3.62
2022-12-20T02:49:23.865Z,3.61
2022-12-20T02:51:54.506Z,3.66
2022-12-20T02:54:22.621Z,3.74
2022-12-20T02:57:39.329Z,3.72
2022-12-20T03:00:19.321Z,3.68
2022-12-20T03:03:07.165Z,3.67
2022-12-20T03:05:44.482Z,3.64
2022-12-20T03:08:12.432Z,3.62
2022-12-20T03:10:39.726Z,3.62
2022-12-20T03:13:07.658Z,3.58
2022-12-20T03:15:37.044Z,3.52
2022-12-20T03:18:04.908Z,3.62
2022-12-20T03:20:32.347Z,3.56
2022-12-20T03:22:59.764Z,3.44
2022-12-20T03:25:27.623Z,3.45
2022-12-20T03:27:57.685Z,3.45
2022-12-20T03:30:26.222Z,3.47
2022-12-20T03:32:53.539Z,3.43
2022-12-20T03:35:20.879Z,3.42
2022-12-20T03:37:48.088Z,3.40
2022-12-20T03:40:16.129Z,3.42
2022-12-20T03:42:44.491Z,3.45
2022-12-20T03:45:11.907Z,3.49
2022-12-20T03:47:39.527Z,3.49
2022-12-20T03:50:08.173Z,3.49
2022-12-20T03:52:36.321Z,3.49
2022-12-20T03:55:06.203Z,3.52
2022-12-20T03:57:40.409Z,3.44
2022-12-20T04:00:19.027Z,3.46
2022-12-20T04:02:49.032Z,3.47
2022-12-20T04:05:16.749Z,3.44
2022-12-20T04:07:45.288Z,3.41
2022-12-20T04:10:12.847Z,3.40
2022-12-20T04:12:40.112Z,3.36
2022-12-20T04:15:11.069Z,3.29
2022-12-20T04:17:40.654Z,3.32
2022-12-20T04:20:21.635Z,3.33
2022-12-20T04:22:57.601Z,3.35
2022-12-20T04:25:24.924Z,3.32
2022-12-20T04:27:55.311Z,3.15
2022-12-20T04:30:22.727Z,3.17
2022-12-20T04:32:54.577Z,3.20
2022-12-20T04:35:22.480Z,3.16
2022-12-20T04:37:50.224Z,3.15
2022-12-20T04:40:18.457Z,3.24
2022-12-20T04:42:49.258Z,3.21
2022-12-20T04:45:17.488Z,3.16
2022-12-20T04:47:44.991Z,3.19
2022-12-20T04:50:14.665Z,3.14
2022-12-20T04:53:02.812Z,3.08
2022-12-20T04:55:32.022Z,3.06
2022-12-20T04:58:03.736Z,3.11
2022-12-20T05:00:35.584Z,3.12
2022-12-20T05:03:10.844Z,3.13
2022-12-20T05:05:38.202Z,3.12
2022-12-20T05:08:05.856Z,3.12
2022-12-20T05:10:33.156Z,3.12
2022-12-20T05:13:07.438Z,3.17
2022-12-20T05:15:40.336Z,3.30
2022-12-20T05:18:07.815Z,3.27
2022-12-20T05:20:44.217Z,3.21
2022-12-20T05:23:31.263Z,3.24
2022-12-20T05:26:18.485Z,3.21
2022-12-20T05:28:46.151Z,3.27
2022-12-20T05:31:13.563Z,3.17
2022-12-20T05:33:40.736Z,3.23
2022-12-20T05:36:09.238Z,3.27
2022-12-20T05:38:36.826Z,3.23
2022-12-20T05:41:11.105Z,3.23
2022-12-20T05:43:38.438Z,3.20
2022-12-20T05:46:06.419Z,3.24
2022-12-20T05:48:42.598Z,3.21
2022-12-20T05:51:11.255Z,3.19
2022-12-20T05:53:55.513Z,3.19
2022-12-20T05:56:35.055Z,3.26
2022-12-20T05:59:02.384Z,3.33
2022-12-20T06:01:29.713Z,3.36
2022-12-20T06:03:59.571Z,3.38
2022-12-20T06:06:27.112Z,3.39
2022-12-20T06:08:56.201Z,3.36
2022-12-20T06:11:37.656Z,3.40
2022-12-20T06:14:09.216Z,3.36
2022-12-20T06:16:39.980Z,3.36
2022-12-20T06:19:09.576Z,3.33
2022-12-20T06:21:37.197Z,3.32
2022-12-20T06:24:06.068Z,3.39
2022-12-20T06:26:36.565Z,3.36
2022-12-20T06:29:09.133Z,3.28
2022-12-20T06:31:51.844Z,3.28
2022-12-20T06:34:19.351Z,3.31
2022-12-20T06:36:46.833Z,3.27
2022-12-20T06:39:19.295Z,3.24
2022-12-20T06:41:56.910Z,3.32
2022-12-20T06:44:24.618Z,3.30
2022-12-20T06:46:51.968Z,3.38
2022-12-20T06:49:19.502Z,3.35
2022-12-20T06:51:47.771Z,3.35
2022-12-20T06:54:15.517Z,3.39
2022-12-20T06:56:42.815Z,3.33
2022-12-20T06:59:12.320Z,3.33
2022-12-20T07:01:39.695Z,3.37
2022-12-20T07:04:06.984Z,3.38
2022-12-20T07:06:34.420Z,3.39
2022-12-20T07:09:02.230Z,3.41
2022-12-20T07:11:29.526Z,3.37
2022-12-20T07:13:58.027Z,3.39
2022-12-20T07:16:25.698Z,3.45
2022-12-20T07:18:54.111Z,3.44
2022-12-20T07:21:22.127Z,3.45
2022-12-20T07:23:49.774Z,3.47
2022-12-20T07:26:17.050Z,3.45
2022-12-20T07:28:44.714Z,3.43
2022-12-20T07:31:12.073Z,3.45
2022-12-20T07:33:39.687Z,3.44
2022-12-20T07:36:12.518Z,3.50
2022-12-20T07:38:39.995Z,3.51
2022-12-20T07:41:16.819Z,3.54
2022-12-20T07:43:44.207Z,3.57
2022-12-20T07:46:15.779Z,3.58
2022-12-20T07:48:44.658Z,3.59
2022-12-20T07:51:32.284Z,3.58
2022-12-20T07:54:10.570Z,3.65
2022-12-20T07:56:44.217Z,3.72
2022-12-20T07:59:17.943Z,3.74
2022-12-20T08:01:46.548Z,3.77
2022-12-20T08:04:21.937Z,3.72
2022-12-20T08:06:51.144Z,3.77
2022-12-20T08:09:19.259Z,3.81
2022-12-20T08:11:50.121Z,3.78
2022-12-20T08:14:19.531Z,3.78
2022-12-20T08:16:46.756Z,3.80
2022-12-20T08:19:13.963Z,3.80
2022-12-20T08:21:41.129Z,3.75
2022-12-20T08:24:08.885Z,3.77
2022-12-20T08:26:41.784Z,3.86
2022-12-20T08:29:09.823Z,3.80
2022-12-20T08:31:49.480Z,3.80
2022-12-20T08:34:18.868Z,3.82
2022-12-20T08:36:46.047Z,3.74
2022-12-20T08:39:13.466Z,3.79
2022-12-20T08:41:40.656Z,3.79
2022-12-20T08:44:08.557Z,3.78
2022-12-20T08:46:37.070Z,3.94
2022-12-20T08:49:06.107Z,3.85
2022-12-20T08:51:33.680Z,3.66
2022-12-20T08:54:02.560Z,3.65
2022-12-20T08:56:29.889Z,3.57
2022-12-20T08:58:57.533Z,3.75
2022-12-20T09:01:26.860Z,3.78
2022-12-20T09:03:54.227Z,3.81
2022-12-20T09:06:23.202Z,3.83
2022-12-20T09:08:51.156Z,3.90
2022-12-20T09:11:25.198Z,3.84
2022-12-20T09:13:57.350Z,3.83
2022-12-20T09:16:31.926Z,3.89
2022-12-20T09:19:05.583Z,3.87
2022-12-20T09:21:34.883Z,4.02
2022-12-20T09:24:02.354Z,4.10
2022-12-20T09:26:30.588Z,4.08
2022-12-20T09:28:58.740Z,4.05
2022-12-20T09:31:27.144Z,4.14
2022-12-20T09:33:57.881Z,4.15
2022-12-20T09:36:29.588Z,4.21
2022-12-20T09:38:57.624Z,4.19
2022-12-20T09:41:41.272Z,3.92
2022-12-20T09:44:30.931Z,3.93
2022-12-20T09:47:21.324Z,4.04
2022-12-20T09:49:55.249Z,3.97
2022-12-20T09:53:22.416Z,4.04
2022-12-20T09:56:03.919Z,4.10
2022-12-20T09:59:06.457Z,4.02
2022-12-20T10:01:40.001Z,4.14
2022-12-20T10:04:26.762Z,4.28
2022-12-20T10:07:19.637Z,4.27
2022-12-20T10:10:36.302Z,4.07
2022-12-20T10:13:26.167Z,4.10
2022-12-20T10:16:36.063Z,4.13
2022-12-20T10:19:43.833Z,4.19
2022-12-20T10:22:27.587Z,4.26
2022-12-20T10:25:25.172Z,4.31
2022-12-20T10:27:57.037Z,4.26
2022-12-20T10:30:28.151Z,4.24
2022-12-20T10:32:58.816Z,4.38
2022-12-20T10:35:41.378Z,4.53
2022-12-20T10:38:13.329Z,4.66
2022-12-20T10:41:21.756Z,4.70
2022-12-20T10:44:24.292Z,4.70
2022-12-20T10:46:59.561Z,4.81
2022-12-20T10:49:40.983Z,4.78
2022-12-20T10:52:08.222Z,4.85
2022-12-20T10:54:43.104Z,4.95
2022-12-20T10:57:29.447Z,4.88
2022-12-20T11:00:09.025Z,4.83
2022-12-20T11:02:42.391Z,4.96
2022-12-20T11:05:12.807Z,4.84
2022-12-20T11:10:46.432Z,4.87
2022-12-20T11:13:26.221Z,4.88
2022-12-20T11:15:57.694Z,4.91
2022-12-20T11:18:52.836Z,5.06
2022-12-20T11:21:56.647Z,5.25
2022-12-20T11:25:14.759Z,5.29
2022-12-20T11:28:10.500Z,5.05
2022-12-20T11:31:21.781Z,5.15
2022-12-20T11:34:22.848Z,5.13
2022-12-20T11:37:30.658Z,5.05
2022-12-20T11:40:28.156Z,5.10
2022-12-20T11:43:13.674Z,5.18
2022-12-20T11:46:30.650Z,5.22
2022-12-20T11:49:14.024Z,5.30
2022-12-20T11:52:33.433Z,5.47
2022-12-20T11:55:21.693Z,5.18
2022-12-20T11:58:21.081Z,5.09
2022-12-20T12:01:05.389Z,5.29
2022-12-20T12:04:17.132Z,5.32
2022-12-20T12:07:02.873Z,5.39
2022-12-20T12:10:09.723Z,5.53
2022-12-20T12:12:58.074Z,5.54
2022-12-20T12:16:03.428Z,5.45
2022-12-20T12:18:36.984Z,5.50
2022-12-20T12:21:26.358Z,5.62
2022-12-20T12:24:30.980Z,5.52
2022-12-20T12:27:02.146Z,5.45
2022-12-20T12:29:32.824Z,5.39
2022-12-20T12:32:09.927Z,5.39
2022-12-20T12:35:17.403Z,5.25
2022-12-20T12:38:15.553Z,5.07
2022-12-20T12:41:32.754Z,5.04
2022-12-20T12:44:54.310Z,4.98
2022-12-20T12:48:19.546Z,4.88
2022-12-20T12:50:53.996Z,4.94
2022-12-20T12:53:44.825Z,4.87
2022-12-20T12:56:52.022Z,4.89
2022-12-20T12:59:32.581Z,4.90
2022-12-20T13:02:15.264Z,4.94
2022-12-20T13:05:07.065Z,4.77
2022-12-20T13:07:35.102Z,4.76
2022-12-20T13:10:25.057Z,4.82
2022-12-20T13:12:52.814Z,4.79
2022-12-20T13:15:22.883Z,4.90
2022-12-20T13:17:57.021Z,4.85
2022-12-20T13:20:33.714Z,4.82
2022-12-20T13:23:23.920Z,4.78
2022-12-20T13:25:52.654Z,4.86
2022-12-20T13:28:20.455Z,4.88
2022-12-20T13:31:09.853Z,4.85
2022-12-20T13:33:51.514Z,5.00
2022-12-20T13:36:37.773Z,5.06
2022-12-20T13:39:25.510Z,5.14
2022-12-20T13:42:41.489Z,5.11
2022-12-20T13:45:15.404Z,5.03
2022-12-20T13:48:01.287Z,4.99
2022-12-20T13:50:40.429Z,4.94
2022-12-20T13:53:19.900Z,4.96
2022-12-20T13:55:48.758Z,4.92
2022-12-20T13:58:36.904Z,4.86
2022-12-20T14:01:13.370Z,4.96
2022-12-20T14:03:46.256Z,4.89
2022-12-20T14:06:15.594Z,4.92
2022-12-20T14:08:49.784Z,4.86
2022-12-20T14:11:28.095Z,4.81
2022-12-20T14:14:03.007Z,4.67
2022-12-20T14:16:33.465Z,4.66
2022-12-20T14:19:07.610Z,4.64
2022-12-20T14:21:43.046Z,4.53
2022-12-20T14:24:22.603Z,4.44
2022-12-20T14:26:53.709Z,4.57
2022-12-20T14:29:30.963Z,4.55
2022-12-20T14:31:58.351Z,4.58
2022-12-20T14:34:36.701Z,4.66
2022-12-20T14:37:53.107Z,4.55
2022-12-20T14:40:21.495Z,4.56
2022-12-20T14:42:48.896Z,4.54
2022-12-20T14:45:21.375Z,4.53
2022-12-20T14:48:09.320Z,4.59
2022-12-20T14:50:40.679Z,4.55
2022-12-20T14:53:30.239Z,4.60
2022-12-20T14:55:58.170Z,4.51
2022-12-20T14:58:32.070Z,4.44
2022-12-20T15:01:27.187Z,4.39
2022-12-20T15:04:00.307Z,4.44
2022-12-20T15:06:52.500Z,4.44
2022-12-20T15:09:20.413Z,4.44
2022-12-20T15:11:48.676Z,4.55
2022-12-20T15:14:37.299Z,4.57
2022-12-20T15:17:13.193Z,4.47
2022-12-20T15:19:42.839Z,4.43
2022-12-20T15:22:18.779Z,4.37
2022-12-20T15:24:45.860Z,4.29
2022-12-20T15:27:14.878Z,4.29
2022-12-20T15:29:43.168Z,4.26
2022-12-20T15:32:32.010Z,4.27
2022-12-20T15:34:59.265Z,4.30
2022-12-20T15:37:26.510Z,4.48
2022-12-20T15:39:53.735Z,4.47
2022-12-20T15:42:22.879Z,4.44
2022-12-20T15:44:50.594Z,4.45
2022-12-20T15:47:17.849Z,4.42
2022-12-20T15:49:50.130Z,4.49
2022-12-20T15:52:23.706Z,4.38
2022-12-20T15:54:51.351Z,4.35
2022-12-20T15:57:18.553Z,4.36
2022-12-20T16:00:03.410Z,4.40
2022-12-20T16:02:39.142Z,4.41
2022-12-20T16:05:10.934Z,4.37
2022-12-20T16:07:38.253Z,4.36
2022-12-20T16:10:07.949Z,4.37
2022-12-20T16:12:36.544Z,4.44
2022-12-20T16:15:05.102Z,4.53
2022-12-20T16:17:32.337Z,4.41
2022-12-20T16:19:59.543Z,4.35
2022-12-20T16:22:26.883Z,4.28
2022-12-20T16:24:54.334Z,4.31
2022-12-20T16:27:21.593Z,4.31
2022-12-20T16:29:48.895Z,4.38
2022-12-20T16:32:19.756Z,4.34
2022-12-20T16:34:49.737Z,4.31
2022-12-20T16:37:17.250Z,4.31
2022-12-20T16:39:44.993Z,4.32
2022-12-20T16:42:20.917Z,4.28
2022-12-20T16:44:52.992Z,4.33
2022-12-20T16:47:20.405Z,4.31
2022-12-20T16:49:52.834Z,4.31
2022-12-20T16:52:22.733Z,4.28
2022-12-20T16:54:50.824Z,4.25
2022-12-20T16:57:18.339Z,4.34
2022-12-20T16:59:45.508Z,4.35
2022-12-20T17:02:34.971Z,4.35
2022-12-20T17:05:02.576Z,4.36
2022-12-20T17:07:29.828Z,4.36
2022-12-20T17:09:59.194Z,4.35
2022-12-20T17:12:26.536Z,4.33
2022-12-20T17:14:53.711Z,4.35
2022-12-20T17:17:20.987Z,4.36
2022-12-20T17:19:48.213Z,4.36
2022-12-20T17:25:03.157Z,4.29
2022-12-20T17:27:30.465Z,4.25
2022-12-20T17:29:57.716Z,4.32
2022-12-20T17:32:26.116Z,4.32
2022-12-20T17:34:54.379Z,4.37
2022-12-20T17:37:21.853Z,4.45
2022-12-20T17:39:49.225Z,4.37
2022-12-20T17:42:16.835Z,4.42
2022-12-20T17:44:46.134Z,4.45
2022-12-20T17:47:13.581Z,4.36
2022-12-20T17:49:40.863Z,4.36
2022-12-20T17:52:16.212Z,4.37
2022-12-20T17:54:43.464Z,4.39
2022-12-20T17:57:15.829Z,4.35
2022-12-20T17:59:43.798Z,4.32
2022-12-20T18:02:23.215Z,4.30
2022-12-20T18:04:51.420Z,4.37
2022-12-20T18:07:18.696Z,4.38
2022-12-20T18:09:49.259Z,4.41
2022-12-20T18:12:17.896Z,4.48
2022-12-20T18:14:45.218Z,4.42
2022-12-20T18:17:12.507Z,4.47
2022-12-20T18:19:40.782Z,4.44
2022-12-20T18:22:08.101Z,4.39
2022-12-20T18:24:35.294Z,4.41
2022-12-20T18:27:02.551Z,4.39
2022-12-20T18:29:30.131Z,4.39
2022-12-20T18:31:57.644Z,4.41
2022-12-20T18:34:25.024Z,4.36
2022-12-20T18:36:52.257Z,4.42
2022-12-20T18:39:19.617Z,4.39
2022-12-20T18:41:48.264Z,4.36
2022-12-20T18:44:15.680Z,4.40
2022-12-20T18:46:42.910Z,4.39
2022-12-20T18:49:10.216Z,4.39
2022-12-20T18:51:37.495Z,4.43
2022-12-20T18:54:08.055Z,4.45
2022-12-20T18:56:38.532Z,4.47
2022-12-20T18:59:12.059Z,4.41
2022-12-20T19:01:42.337Z,4.30
2022-12-20T19:04:11.109Z,4.26
2022-12-20T19:06:38.727Z,4.27
2022-12-20T19:09:10.947Z,4.34
2022-12-20T19:11:39.582Z,4.43
2022-12-20T19:14:07.842Z,4.38
2022-12-20T19:16:35.805Z,4.29
2022-12-20T19:19:04.220Z,4.29
2022-12-20T19:21:35.145Z,4.34
2022-12-20T19:24:06.944Z,4.33
2022-12-20T19:26:37.523Z,4.35
2022-12-20T19:29:06.450Z,4.34
2022-12-20T19:31:37.490Z,4.41
2022-12-20T19:34:11.213Z,4.36
2022-12-20T19:36:43.123Z,4.39
2022-12-20T19:39:22.126Z,4.36
2022-12-20T19:42:21.828Z,4.27
2022-12-20T19:44:37.832Z,4.27
2022-12-20T19:47:05.341Z,4.32
2022-12-20T19:49:32.727Z,4.36
2022-12-20T19:51:59.989Z,4.33
2022-12-20T19:54:27.567Z,4.36
2022-12-20T19:56:54.813Z,4.32
2022-12-20T19:59:22.211Z,4.28
2022-12-20T20:01:49.544Z,4.20
2022-12-20T20:04:16.803Z,4.18
2022-12-20T20:06:44.181Z,4.16
2022-12-20T20:09:11.422Z,4.16
2022-12-20T20:11:38.625Z,4.16
2022-12-20T20:14:09.176Z,4.17
2022-12-20T20:16:37.867Z,4.16
2022-12-20T20:19:05.561Z,4.19
2022-12-20T20:21:36.229Z,4.20
2022-12-20T20:24:04.063Z,4.21
2022-12-20T20:26:31.829Z,4.20
2022-12-20T20:29:02.356Z,4.26
2022-12-20T20:31:30.462Z,4.29
2022-12-20T20:33:58.481Z,4.28
2022-12-20T20:36:25.779Z,4.30
2022-12-20T20:38:53.265Z,4.34
2022-12-20T20:41:20.491Z,4.36
2022-12-20T20:43:48.024Z,4.36
2022-12-20T20:46:17.447Z,4.33
2022-12-20T20:48:45.708Z,4.30
2022-12-20T20:51:13.393Z,4.26
2022-12-20T20:53:41.014Z,4.26
2022-12-20T20:56:09.586Z,4.22
2022-12-20T20:58:38.017Z,4.21
2022-12-20T21:01:09.084Z,4.22
2022-12-20T21:03:37.377Z,4.20
2022-12-20T21:06:37.042Z,4.24
2022-12-20T21:08:55.468Z,4.28
2022-12-20T21:11:23.286Z,4.28
2022-12-20T21:13:50.567Z,4.30
2022-12-20T21:16:22.526Z,4.27
2022-12-20T21:18:56.912Z,4.24
2022-12-20T21:21:26.144Z,4.22
2022-12-20T21:23:54.901Z,4.36
2022-12-20T21:26:25.189Z,4.42
2022-12-20T21:29:00.951Z,4.42
2022-12-20T21:31:29.336Z,4.31
2022-12-20T21:33:57.252Z,4.23
2022-12-20T21:36:24.936Z,4.15
2022-12-20T21:38:58.033Z,4.02
2022-12-20T21:41:28.405Z,4.05
2022-12-20T21:43:58.899Z,4.10
2022-12-20T21:46:29.099Z,4.19
2022-12-20T21:48:56.553Z,4.06
2022-12-20T21:51:27.103Z,3.99
2022-12-20T21:54:01.456Z,3.93
2022-12-20T21:56:34.128Z,3.84
2022-12-20T21:59:04.027Z,3.82
2022-12-20T22:01:32.107Z,3.88
2022-12-20T22:04:04.070Z,3.94
2022-12-20T22:06:32.452Z,3.88
2022-12-20T22:09:02.158Z,3.86
2022-12-20T22:11:29.402Z,3.84
2022-12-20T22:13:57.984Z,3.82
2022-12-20T22:16:30.043Z,3.78
2022-12-20T22:18:59.444Z,3.74
2022-12-20T22:21:31.362Z,3.72
2022-12-20T22:24:01.119Z,3.69
2022-12-20T22:26:32.080Z,3.68
2022-12-20T22:29:04.084Z,3.68
2022-12-20T22:31:32.245Z,3.68
2022-12-20T22:34:00.251Z,3.69
2022-12-20T22:36:28.409Z,3.71
2022-12-20T22:38:57.227Z,3.72
2022-12-20T22:41:34.816Z,3.76
2022-12-20T22:44:03.237Z,3.85
2022-12-20T22:46:30.922Z,3.76
2022-12-20T22:49:01.454Z,3.83
2022-12-20T22:51:30.840Z,3.84
2022-12-20T22:53:59.550Z,3.78
2022-12-20T22:56:27.177Z,3.82
2022-12-20T22:58:54.453Z,3.87
2022-12-20T23:01:21.960Z,3.86
2022-12-20T23:03:49.597Z,3.96
2022-12-20T23:06:20.735Z,3.94
2022-12-20T23:08:49.190Z,3.82
2022-12-20T23:11:45.758Z,3.62
2022-12-20T23:14:36.364Z,3.62
2022-12-20T23:17:06.501Z,3.66
2022-12-20T23:19:53.336Z,3.71
2022-12-20T23:22:39.390Z,3.76
2022-12-20T23:25:18.127Z,3.64
2022-12-20T23:27:49.252Z,3.63
2022-12-20T23:30:22.254Z,3.59
2022-12-20T23:32:49.921Z,3.59
2022-12-20T23:35:20.007Z,3.60
2022-12-20T23:37:48.325Z,3.60
2022-12-20T23:40:17.433Z,3.58
2022-12-20T23:42:45.381Z,3.58
2022-12-20T23:45:12.613Z,3.59
2022-12-20T23:47:39.962Z,3.66
2022-12-20T23:50:08.246Z,3.59
2022-12-20T23:52:35.533Z,3.54
2022-12-20T23:55:03.140Z,3.54
2022-12-20T23:57:31.343Z,3.51
2022-12-20T23:59:58.684Z,3.44
